Terminal Aerodrome Forecast
Issued by NWS Northern Indiana

Home | Current Version | Previous Version | Graphics & Text | Print | Product List | Glossary On
Versions: 1 2 3 4 5 6 7 8 9 10
000
FTUS43 KIWX 260500
TAFFWA
TAF
KFWA 260525Z 2606/2706 18010KT P6SM SCT200 WS020/23040KT
     FM261400 20013KT P6SM BKN200=

USA.gov is the U.S. government's official web portal to all federal, state and local government web resources and services.